createdAt,value
2017-05-04T00:00:55.740Z,11.55
2017-05-04T00:03:23.191Z,11.57
2017-05-04T00:05:50.633Z,11.58
2017-05-04T00:08:18.112Z,11.59
2017-05-04T00:10:45.563Z,11.59
2017-05-04T00:13:13.019Z,11.59
2017-05-04T00:15:40.484Z,11.60
2017-05-04T00:18:07.919Z,11.60
2017-05-04T00:20:35.363Z,11.60
2017-05-04T00:23:02.826Z,11.61
2017-05-04T00:25:30.267Z,11.60
2017-05-04T00:27:57.749Z,11.61
2017-05-04T00:30:25.236Z,11.61
2017-05-04T00:32:52.691Z,11.62
2017-05-04T00:35:20.282Z,11.62
2017-05-04T00:37:47.743Z,11.61
2017-05-04T00:40:15.185Z,11.62
2017-05-04T00:42:42.635Z,11.63
2017-05-04T00:45:10.110Z,11.62
2017-05-04T00:47:37.559Z,11.63
2017-05-04T00:50:04.998Z,11.63
2017-05-04T00:52:32.462Z,11.63
2017-05-04T00:54:59.907Z,11.63
2017-05-04T00:57:27.346Z,11.64
2017-05-04T00:59:54.808Z,11.63
2017-05-04T01:02:22.277Z,11.63
2017-05-04T01:04:49.705Z,11.64
2017-05-04T01:07:17.171Z,11.64
2017-05-04T01:09:44.611Z,11.64
2017-05-04T01:12:12.053Z,11.64
2017-05-04T01:14:39.517Z,11.65
2017-05-04T01:17:06.954Z,11.65
2017-05-04T01:19:34.407Z,11.66
2017-05-04T01:22:01.856Z,11.67
2017-05-04T01:24:29.306Z,11.68
2017-05-04T01:26:56.742Z,11.69
2017-05-04T01:29:24.222Z,11.69
2017-05-04T01:31:51.734Z,11.70
2017-05-04T01:34:19.182Z,11.70
2017-05-04T01:36:46.630Z,11.72
2017-05-04T01:39:14.077Z,11.73
2017-05-04T01:41:41.520Z,11.74
2017-05-04T01:44:08.994Z,11.76
2017-05-04T01:46:36.443Z,11.77
2017-05-04T01:49:03.895Z,11.78
2017-05-04T01:51:31.370Z,11.79
2017-05-04T01:53:58.807Z,11.81
2017-05-04T01:56:26.253Z,11.81
2017-05-04T01:58:53.733Z,11.82
2017-05-04T02:01:21.198Z,11.82
2017-05-04T02:03:48.630Z,11.83
2017-05-04T02:06:16.085Z,11.83
2017-05-04T02:08:43.534Z,11.82
2017-05-04T02:11:10.985Z,11.83
2017-05-04T02:13:38.484Z,11.82
2017-05-04T02:16:05.915Z,11.82
2017-05-04T02:18:33.361Z,11.82
2017-05-04T02:21:00.817Z,11.82
2017-05-04T02:23:28.272Z,11.82
2017-05-04T02:25:55.738Z,11.82
2017-05-04T02:28:23.210Z,11.83
2017-05-04T02:30:50.670Z,11.83
2017-05-04T02:33:18.117Z,11.81
2017-05-04T02:35:45.581Z,11.81
2017-05-04T02:38:13.017Z,11.81
2017-05-04T02:40:40.459Z,11.81
2017-05-04T02:43:07.915Z,11.82
2017-05-04T02:45:35.354Z,11.81
2017-05-04T02:48:02.786Z,11.81
2017-05-04T02:50:30.234Z,11.81
2017-05-04T02:52:57.685Z,11.81
2017-05-04T02:55:25.124Z,11.82
2017-05-04T02:57:52.602Z,11.83
2017-05-04T03:00:20.045Z,11.84
2017-05-04T03:02:47.478Z,11.84
2017-05-04T03:05:14.952Z,11.84
2017-05-04T03:07:42.391Z,11.85
2017-05-04T03:10:10.094Z,11.86
2017-05-04T03:12:37.558Z,11.86
2017-05-04T03:15:05.007Z,11.86
2017-05-04T03:17:32.466Z,11.85
2017-05-04T03:19:59.929Z,11.85
2017-05-04T03:22:27.369Z,11.86
2017-05-04T03:24:54.815Z,11.87
2017-05-04T03:27:22.346Z,11.88
2017-05-04T03:29:49.782Z,11.88
2017-05-04T03:32:17.271Z,11.89
2017-05-04T03:34:44.743Z,11.89
2017-05-04T03:37:12.190Z,11.88
2017-05-04T03:39:39.640Z,11.89
2017-05-04T03:42:07.117Z,11.89
2017-05-04T03:44:34.586Z,11.89
2017-05-04T03:47:02.045Z,11.89
2017-05-04T03:49:29.527Z,11.90
2017-05-04T03:51:57.018Z,11.90
2017-05-04T03:54:24.461Z,11.90
2017-05-04T03:56:51.927Z,11.89
2017-05-04T03:59:19.364Z,11.90
2017-05-04T04:01:46.802Z,11.90
2017-05-04T04:04:14.267Z,11.90
2017-05-04T04:06:41.693Z,11.91
2017-05-04T04:09:09.137Z,11.92
2017-05-04T04:11:36.586Z,11.93
2017-05-04T04:14:04.018Z,11.95
2017-05-04T04:16:31.460Z,11.96
2017-05-04T04:18:58.930Z,11.95
2017-05-04T04:21:26.378Z,11.95
2017-05-04T04:23:53.817Z,11.95
2017-05-04T04:26:21.284Z,11.95
2017-05-04T04:28:48.719Z,11.94
2017-05-04T04:31:16.153Z,11.94
2017-05-04T04:33:43.607Z,11.94
2017-05-04T04:36:11.042Z,11.94
2017-05-04T04:38:38.481Z,11.93
2017-05-04T04:41:05.934Z,11.95
2017-05-04T04:43:33.363Z,11.94
2017-05-04T04:46:00.808Z,11.94
2017-05-04T04:48:28.274Z,11.95
2017-05-04T04:50:55.710Z,11.96
2017-05-04T04:53:23.139Z,11.96
2017-05-04T04:55:50.610Z,11.97
2017-05-04T04:58:18.041Z,11.96
2017-05-04T05:00:45.476Z,11.96
2017-05-04T05:03:12.947Z,11.96
2017-05-04T05:05:40.386Z,11.97
2017-05-04T05:08:07.830Z,11.98
2017-05-04T05:10:35.293Z,11.99
2017-05-04T05:13:02.727Z,12.01
2017-05-04T05:15:30.158Z,12.02
2017-05-04T05:17:57.616Z,12.02
2017-05-04T05:20:25.058Z,12.04
2017-05-04T05:22:52.506Z,12.04
2017-05-04T05:25:19.950Z,12.06
2017-05-04T05:27:47.397Z,12.07
2017-05-04T05:30:14.840Z,12.07
2017-05-04T05:32:42.305Z,12.08
2017-05-04T05:35:09.752Z,12.07
2017-05-04T05:37:37.192Z,12.07
2017-05-04T05:40:04.662Z,12.06
2017-05-04T05:42:32.092Z,12.06
2017-05-04T05:44:59.529Z,12.05
2017-05-04T05:47:26.975Z,12.04
2017-05-04T05:49:54.413Z,12.02
2017-05-04T05:52:21.861Z,12.00
2017-05-04T05:54:49.322Z,11.99
2017-05-04T05:57:16.759Z,11.99
2017-05-04T05:59:44.197Z,11.97
2017-05-04T06:02:11.664Z,11.96
2017-05-04T06:04:39.105Z,11.95
2017-05-04T06:07:06.538Z,11.96
2017-05-04T06:09:34.002Z,11.95
2017-05-04T06:12:01.430Z,11.94
2017-05-04T06:14:28.874Z,11.94
2017-05-04T06:16:56.325Z,11.92
2017-05-04T06:19:23.762Z,11.92
2017-05-04T06:21:51.197Z,11.93
2017-05-04T06:24:18.663Z,11.93
2017-05-04T06:26:46.136Z,11.92
2017-05-04T06:29:13.575Z,11.91
2017-05-04T06:31:41.026Z,11.92
2017-05-04T06:34:08.462Z,11.91
2017-05-04T06:36:35.903Z,11.91
2017-05-04T06:39:03.382Z,11.92
2017-05-04T06:41:30.827Z,11.92
2017-05-04T06:43:58.286Z,11.92
2017-05-04T06:46:25.755Z,11.93
2017-05-04T06:48:53.230Z,11.93
2017-05-04T06:51:20.710Z,11.94
2017-05-04T06:53:48.207Z,11.95
2017-05-04T06:56:15.682Z,11.96
2017-05-04T06:58:43.167Z,11.97
2017-05-04T07:01:10.613Z,11.98
2017-05-04T07:03:38.075Z,12.00
2017-05-04T07:06:05.542Z,12.02
2017-05-04T07:08:33.005Z,12.06
2017-05-04T07:11:00.446Z,12.09
2017-05-04T07:13:28.713Z,12.14
2017-05-04T07:15:56.154Z,12.18
2017-05-04T07:18:23.591Z,12.24
2017-05-04T07:20:51.045Z,12.30
2017-05-04T07:23:18.486Z,12.36
2017-05-04T07:25:45.926Z,12.41
2017-05-04T07:28:13.390Z,12.47
2017-05-04T07:30:40.837Z,12.52
2017-05-04T07:33:08.275Z,12.56
2017-05-04T07:35:35.742Z,12.60
2017-05-04T07:38:03.199Z,12.64
2017-05-04T07:40:30.660Z,12.69
2017-05-04T07:42:58.142Z,12.73
2017-05-04T07:45:25.577Z,12.77
2017-05-04T07:47:53.037Z,12.82
2017-05-04T07:50:20.499Z,12.86
2017-05-04T07:52:47.965Z,12.91
2017-05-04T07:55:15.405Z,12.96
2017-05-04T07:57:42.864Z,13.02
2017-05-04T08:00:10.335Z,13.10
2017-05-04T08:02:37.783Z,13.21
2017-05-04T08:05:05.259Z,13.32
2017-05-04T08:07:32.706Z,13.43
2017-05-04T08:10:00.146Z,13.52
2017-05-04T08:12:28.601Z,13.61
2017-05-04T08:14:56.257Z,13.69
2017-05-04T08:17:23.700Z,13.77
2017-05-04T08:19:51.166Z,13.82
2017-05-04T08:22:18.609Z,13.86
2017-05-04T08:24:46.047Z,13.89
2017-05-04T08:27:13.523Z,13.94
2017-05-04T08:29:40.962Z,13.98
2017-05-04T08:32:08.393Z,13.97
2017-05-04T08:34:35.856Z,13.96
2017-05-04T08:37:03.297Z,13.92
2017-05-04T08:39:30.738Z,13.88
2017-05-04T08:41:58.193Z,13.85
2017-05-04T08:44:25.629Z,13.83
2017-05-04T08:46:53.057Z,13.80
2017-05-04T08:49:20.528Z,13.79
2017-05-04T08:51:47.962Z,13.80
2017-05-04T08:54:15.397Z,13.81
2017-05-04T08:56:42.858Z,13.82
2017-05-04T08:59:10.293Z,13.83
2017-05-04T09:01:37.734Z,13.85
2017-05-04T09:04:05.189Z,13.87
2017-05-04T09:06:32.624Z,13.90
2017-05-04T09:09:00.062Z,13.92
2017-05-04T09:11:27.532Z,13.94
2017-05-04T09:13:54.969Z,13.94
2017-05-04T09:16:22.401Z,13.93
2017-05-04T09:18:49.861Z,13.92
2017-05-04T09:21:17.294Z,13.91
2017-05-04T09:23:44.746Z,13.90
2017-05-04T09:26:12.202Z,13.92
2017-05-04T09:28:39.637Z,13.91
2017-05-04T09:31:07.079Z,13.92
2017-05-04T09:33:34.550Z,13.91
2017-05-04T09:36:01.986Z,13.92
2017-05-04T09:38:29.425Z,13.91
2017-05-04T09:40:56.871Z,13.91
2017-05-04T09:43:24.301Z,13.90
2017-05-04T09:45:51.738Z,13.90
2017-05-04T09:48:19.201Z,13.90
2017-05-04T09:50:46.631Z,13.89
2017-05-04T09:53:14.066Z,13.90
2017-05-04T09:55:41.526Z,13.89
2017-05-04T09:58:08.974Z,13.89
2017-05-04T10:00:36.405Z,13.90
2017-05-04T10:03:03.866Z,13.91
2017-05-04T10:05:31.310Z,13.91
2017-05-04T10:07:58.746Z,13.91
2017-05-04T10:10:26.210Z,13.93
2017-05-04T10:12:53.642Z,13.95
2017-05-04T10:15:21.080Z,13.98
2017-05-04T10:17:48.525Z,13.99
2017-05-04T10:20:15.958Z,14.00
2017-05-04T10:22:43.393Z,14.01
2017-05-04T10:25:10.857Z,14.00
2017-05-04T10:27:38.305Z,13.98
2017-05-04T10:30:06.495Z,13.96
2017-05-04T10:32:33.966Z,13.95
2017-05-04T10:35:01.406Z,13.93
2017-05-04T10:37:28.838Z,13.94
2017-05-04T10:39:56.287Z,13.93
2017-05-04T10:42:23.725Z,13.93
2017-05-04T10:44:51.162Z,13.91
2017-05-04T10:47:18.630Z,13.90
2017-05-04T10:49:46.073Z,13.88
2017-05-04T10:52:13.533Z,13.84
2017-05-04T10:54:40.978Z,13.82
2017-05-04T10:57:08.466Z,13.76
2017-05-04T10:59:35.922Z,13.73
2017-05-04T11:02:03.406Z,13.70
2017-05-04T11:04:30.846Z,13.67
2017-05-04T11:06:58.303Z,13.66
2017-05-04T11:09:25.759Z,13.63
2017-05-04T11:11:53.218Z,13.63
2017-05-04T11:14:20.658Z,13.62
2017-05-04T11:16:48.158Z,13.62
2017-05-04T11:19:15.606Z,13.62
2017-05-04T11:21:43.062Z,13.60
2017-05-04T11:24:10.606Z,13.58
2017-05-04T11:26:38.062Z,13.56
2017-05-04T11:29:05.538Z,13.54
2017-05-04T11:31:33.023Z,13.53
2017-05-04T11:34:00.466Z,13.53
2017-05-04T11:36:27.915Z,13.52
2017-05-04T11:38:55.382Z,13.52
2017-05-04T11:41:22.828Z,13.53
2017-05-04T11:43:50.289Z,13.54
2017-05-04T11:46:17.767Z,13.55
2017-05-04T11:48:45.238Z,13.56
2017-05-04T11:51:12.696Z,13.57
2017-05-04T11:53:41.095Z,13.58
2017-05-04T11:56:09.473Z,13.58
2017-05-04T11:58:36.945Z,13.57
2017-05-04T12:01:04.405Z,13.56
2017-05-04T12:03:31.858Z,13.58
2017-05-04T12:05:59.303Z,13.63
2017-05-04T12:08:26.763Z,13.65
2017-05-04T12:11:07.294Z,13.66
2017-05-04T12:13:34.774Z,13.65
2017-05-04T12:16:02.234Z,13.62
2017-05-04T12:18:29.721Z,13.58
2017-05-04T12:20:57.262Z,13.55
2017-05-04T12:23:24.760Z,13.53
2017-05-04T12:25:52.271Z,13.49
2017-05-04T12:28:19.842Z,13.46
2017-05-04T12:30:47.366Z,13.44
2017-05-04T12:33:14.846Z,13.41
2017-05-04T12:35:42.329Z,13.39
2017-05-04T12:38:09.842Z,13.36
2017-05-04T12:40:37.345Z,13.35
2017-05-04T12:43:04.869Z,13.34
2017-05-04T12:45:32.413Z,13.31
2017-05-04T12:47:59.935Z,13.27
2017-05-04T12:50:27.493Z,13.24
2017-05-04T12:52:54.980Z,13.22
2017-05-04T12:55:22.494Z,13.20
2017-05-04T12:57:50.032Z,13.17
2017-05-04T13:00:17.557Z,13.12
2017-05-04T13:02:45.131Z,13.04
2017-05-04T13:05:12.638Z,12.97
2017-05-04T13:07:40.131Z,12.91
2017-05-04T13:10:07.624Z,12.87
2017-05-04T13:12:35.144Z,12.85
2017-05-04T13:15:02.609Z,12.84
2017-05-04T13:17:30.106Z,12.82
2017-05-04T13:19:58.562Z,12.81
2017-05-04T13:22:26.018Z,12.81
2017-05-04T13:24:53.474Z,12.80
2017-05-04T13:27:21.006Z,12.80
2017-05-04T13:29:48.523Z,12.80
2017-05-04T13:32:16.075Z,12.82
2017-05-04T13:34:43.538Z,12.83
2017-05-04T13:37:10.990Z,12.81
2017-05-04T13:39:38.422Z,12.75
2017-05-04T13:42:11.769Z,12.69
2017-05-04T13:44:39.234Z,12.59
2017-05-04T13:47:06.814Z,12.48
2017-05-04T13:49:34.348Z,12.38
2017-05-04T13:52:01.890Z,12.31
2017-05-04T13:54:29.363Z,12.21
2017-05-04T13:56:56.854Z,12.15
2017-05-04T13:59:28.311Z,12.11
2017-05-04T14:01:55.858Z,12.08
2017-05-04T14:04:23.345Z,12.06
2017-05-04T14:09:48.146Z,12.05
2017-05-04T14:12:15.677Z,12.06
2017-05-04T14:14:43.117Z,12.09
2017-05-04T14:17:10.630Z,12.13
2017-05-04T14:19:38.186Z,12.16
2017-05-04T14:22:05.679Z,12.20
2017-05-04T14:24:33.186Z,12.26
2017-05-04T14:27:00.664Z,12.31
2017-05-04T14:29:28.151Z,12.35
2017-05-04T14:31:55.725Z,12.41
2017-05-04T14:34:23.230Z,12.49
2017-05-04T14:36:50.682Z,12.55
2017-05-04T14:39:18.172Z,12.64
2017-05-04T14:41:45.699Z,12.75
2017-05-04T14:44:13.147Z,12.84
2017-05-04T14:46:40.622Z,12.94
2017-05-04T14:49:08.070Z,13.02
2017-05-04T14:51:35.550Z,13.13
2017-05-04T14:54:03.025Z,13.23
2017-05-04T14:56:30.476Z,13.35
2017-05-04T14:58:57.922Z,13.47
2017-05-04T15:01:25.393Z,13.62
2017-05-04T15:03:52.850Z,13.73
2017-05-04T15:06:20.305Z,13.84
2017-05-04T15:08:47.790Z,13.93
2017-05-04T15:11:26.790Z,13.97
2017-05-04T15:13:54.266Z,13.99
2017-05-04T15:16:21.734Z,13.99
2017-05-04T15:18:49.186Z,13.98
2017-05-04T15:21:16.626Z,13.98
2017-05-04T15:23:49.630Z,13.96
2017-05-04T15:26:17.070Z,13.94
2017-05-04T15:28:44.520Z,13.93
2017-05-04T15:31:11.974Z,13.92
2017-05-04T15:33:39.425Z,13.92
2017-05-04T15:36:23.910Z,13.93
2017-05-04T15:38:51.479Z,13.93
2017-05-04T15:41:18.926Z,13.94
2017-05-04T15:43:46.379Z,13.94
2017-05-04T15:46:13.832Z,13.94
2017-05-04T15:48:41.322Z,13.94
2017-05-04T15:51:08.983Z,13.95
2017-05-04T15:53:36.418Z,13.98
2017-05-04T15:56:17.626Z,14.02
2017-05-04T15:58:45.071Z,14.05
2017-05-04T16:01:14.466Z,14.08
2017-05-04T16:03:41.931Z,14.12
2017-05-04T16:06:09.391Z,14.12
2017-05-04T16:08:36.826Z,14.13
2017-05-04T16:11:04.271Z,14.15
2017-05-04T16:13:31.734Z,14.19
2017-05-04T16:15:59.184Z,14.22
2017-05-04T16:18:26.852Z,14.26
2017-05-04T16:20:54.294Z,14.26
2017-05-04T16:23:21.753Z,14.26
2017-05-04T16:25:49.249Z,14.24
2017-05-04T16:28:16.696Z,14.20
2017-05-04T16:30:45.747Z,14.17
2017-05-04T16:33:13.193Z,14.13
2017-05-04T16:35:41.059Z,14.10
2017-05-04T16:38:08.536Z,14.06
2017-05-04T16:40:35.986Z,14.01
2017-05-04T16:43:03.450Z,13.97
2017-05-04T16:45:31.347Z,13.93
2017-05-04T16:47:58.804Z,13.90
2017-05-04T16:50:28.263Z,13.86
2017-05-04T16:52:55.723Z,13.83
2017-05-04T16:55:23.174Z,13.80
2017-05-04T16:57:50.619Z,13.75
2017-05-04T17:00:18.217Z,13.70
2017-05-04T17:02:45.752Z,13.67
2017-05-04T17:05:13.200Z,13.64
2017-05-04T17:07:40.654Z,13.63
2017-05-04T17:10:09.065Z,13.61
2017-05-04T17:12:36.595Z,13.58
2017-05-04T17:15:04.066Z,13.57
2017-05-04T17:17:31.514Z,13.55
2017-05-04T17:19:58.966Z,13.52
2017-05-04T17:22:26.435Z,13.51
2017-05-04T17:24:54.903Z,13.50
2017-05-04T17:27:22.421Z,13.48
2017-05-04T17:29:49.894Z,13.48
2017-05-04T17:32:17.360Z,13.47
2017-05-04T17:34:44.817Z,13.45
2017-05-04T17:37:12.278Z,13.44
2017-05-04T17:39:39.738Z,13.39
2017-05-04T17:42:07.200Z,13.37
2017-05-04T17:44:36.398Z,13.34
2017-05-04T17:47:03.857Z,13.31
2017-05-04T17:49:32.220Z,13.28
2017-05-04T17:51:59.679Z,13.25
2017-05-04T17:54:28.055Z,13.21
2017-05-04T17:56:55.511Z,13.17
2017-05-04T17:59:22.965Z,13.13
2017-05-04T18:01:51.365Z,13.08
2017-05-04T18:04:18.831Z,13.03
2017-05-04T18:06:46.265Z,13.00
2017-05-04T18:09:14.660Z,12.96
2017-05-04T18:11:42.100Z,12.91
2017-05-04T18:14:09.551Z,12.88
2017-05-04T18:16:36.997Z,12.84
2017-05-04T18:19:04.436Z,12.80
2017-05-04T18:21:31.918Z,12.75
2017-05-04T18:23:59.353Z,12.70
2017-05-04T18:26:26.783Z,12.66
2017-05-04T18:28:54.241Z,12.62
2017-05-04T18:31:21.681Z,12.58
2017-05-04T18:33:49.123Z,12.54
2017-05-04T18:36:17.295Z,12.50
2017-05-04T18:38:44.742Z,12.47
2017-05-04T18:41:12.181Z,12.44
2017-05-04T18:43:39.641Z,12.41
2017-05-04T18:46:07.074Z,12.38
2017-05-04T18:48:34.506Z,12.34
2017-05-04T18:51:01.963Z,12.31
2017-05-04T18:53:29.398Z,12.28
2017-05-04T18:55:56.837Z,12.26
2017-05-04T18:58:24.293Z,12.25
2017-05-04T19:00:51.766Z,12.22
2017-05-04T19:03:19.225Z,12.20
2017-05-04T19:05:46.703Z,12.17
2017-05-04T19:08:14.134Z,12.14
2017-05-04T19:10:41.573Z,12.11
2017-05-04T19:13:09.042Z,12.09
2017-05-04T19:15:36.474Z,12.09
2017-05-04T19:18:03.917Z,12.07
2017-05-04T19:20:31.382Z,12.04
2017-05-04T19:22:58.817Z,12.02
2017-05-04T19:25:26.253Z,12.01
2017-05-04T19:27:53.702Z,11.97
2017-05-04T19:30:21.140Z,11.96
2017-05-04T19:32:48.583Z,11.94
2017-05-04T19:35:16.042Z,11.93
2017-05-04T19:37:43.474Z,11.93
2017-05-04T19:40:10.919Z,11.91
2017-05-04T19:42:38.376Z,11.90
2017-05-04T19:45:05.813Z,11.90
2017-05-04T19:47:33.251Z,11.89
2017-05-04T19:50:00.713Z,11.89
2017-05-04T19:52:28.146Z,11.89
2017-05-04T19:54:55.585Z,11.89
2017-05-04T19:57:23.053Z,11.88
2017-05-04T19:59:50.490Z,11.87
2017-05-04T20:02:17.958Z,11.87
2017-05-04T20:04:45.421Z,11.86
2017-05-04T20:07:12.864Z,11.85
2017-05-04T20:09:40.305Z,11.84
2017-05-04T20:12:07.760Z,11.83
2017-05-04T20:14:35.189Z,11.82
2017-05-04T20:17:02.622Z,11.82
2017-05-04T20:19:30.077Z,11.80
2017-05-04T20:21:57.517Z,11.80
2017-05-04T20:24:24.969Z,11.79
2017-05-04T20:26:52.429Z,11.78
2017-05-04T20:29:19.869Z,11.77
2017-05-04T20:31:47.308Z,11.75
2017-05-04T20:34:14.761Z,11.73
2017-05-04T20:36:42.208Z,11.71
2017-05-04T20:39:09.648Z,11.70
2017-05-04T20:41:37.106Z,11.69
2017-05-04T20:44:06.008Z,11.69
2017-05-04T20:46:33.476Z,11.67
2017-05-04T20:49:00.934Z,11.65
2017-05-04T20:51:28.378Z,11.63
2017-05-04T20:53:55.802Z,11.61
2017-05-04T20:56:23.288Z,11.60
2017-05-04T20:58:50.726Z,11.58
2017-05-04T21:01:19.167Z,11.57
2017-05-04T21:03:46.621Z,11.56
2017-05-04T21:06:14.066Z,11.56
2017-05-04T21:08:41.505Z,11.54
2017-05-04T21:11:08.958Z,11.57
2017-05-04T21:13:38.269Z,11.62
2017-05-04T21:16:05.711Z,11.67
2017-05-04T21:18:33.169Z,11.71
2017-05-04T21:21:00.612Z,11.76
2017-05-04T21:23:28.058Z,11.80
2017-05-04T21:25:55.494Z,11.82
2017-05-04T21:28:22.949Z,11.85
2017-05-04T21:30:50.378Z,11.86
2017-05-04T21:33:17.826Z,11.87
2017-05-04T21:35:45.305Z,11.89
2017-05-04T21:38:12.761Z,11.88
2017-05-04T21:40:40.218Z,11.89
2017-05-04T21:43:07.678Z,11.89
2017-05-04T21:45:35.136Z,11.87
2017-05-04T21:48:02.612Z,11.87
2017-05-04T21:50:30.061Z,11.87
2017-05-04T21:52:57.501Z,11.84
2017-05-04T21:55:24.939Z,11.82
2017-05-04T21:57:52.398Z,11.81
2017-05-04T22:00:19.837Z,11.81
2017-05-04T22:02:47.282Z,11.80
2017-05-04T22:05:14.731Z,11.78
2017-05-04T22:07:42.170Z,11.77
2017-05-04T22:10:09.599Z,11.75
2017-05-04T22:12:37.057Z,11.73
2017-05-04T22:15:04.708Z,11.73
2017-05-04T22:17:32.137Z,11.72
2017-05-04T22:19:59.589Z,11.70
2017-05-04T22:22:27.026Z,11.70
2017-05-04T22:24:54.462Z,11.69
2017-05-04T22:27:21.918Z,11.67
2017-05-04T22:29:49.346Z,11.66
2017-05-04T22:32:16.778Z,11.64
2017-05-04T22:34:44.229Z,11.64
2017-05-04T22:37:11.685Z,11.64
2017-05-04T22:39:39.124Z,11.63
2017-05-04T22:42:06.579Z,11.61
2017-05-04T22:44:34.014Z,11.59
2017-05-04T22:47:01.441Z,11.58
2017-05-04T22:49:28.901Z,11.57
2017-05-04T22:51:56.335Z,11.56
2017-05-04T22:54:23.762Z,11.54
2017-05-04T22:56:51.249Z,11.55
2017-05-04T22:59:18.689Z,11.52
2017-05-04T23:01:46.177Z,11.51
2017-05-04T23:04:13.633Z,11.48
2017-05-04T23:06:41.074Z,11.48
2017-05-04T23:09:08.506Z,11.48
2017-05-04T23:11:35.973Z,11.44
2017-05-04T23:14:03.420Z,11.44
2017-05-04T23:16:30.865Z,11.42
2017-05-04T23:18:58.316Z,11.40
2017-05-04T23:21:25.752Z,11.39
2017-05-04T23:23:53.183Z,11.40
2017-05-04T23:26:20.645Z,11.39
2017-05-04T23:28:58.431Z,11.36
2017-05-04T23:31:25.902Z,11.34
2017-05-04T23:33:53.333Z,11.33
2017-05-04T23:36:20.769Z,11.30
2017-05-04T23:38:48.239Z,11.28
2017-05-04T23:41:15.669Z,11.25
2017-05-04T23:43:43.154Z,11.25
2017-05-04T23:46:10.606Z,11.22
2017-05-04T23:48:38.041Z,11.19
2017-05-04T23:51:05.480Z,11.19
2017-05-04T23:53:32.944Z,11.19
2017-05-04T23:56:00.392Z,11.19
2017-05-04T23:58:27.826Z,11.20
